createdAt,value
2022-09-14T00:03:11.986Z,2.30
2022-09-14T00:08:52.716Z,2.70
2022-09-14T00:14:20.572Z,2.60
2022-09-14T00:19:37.335Z,2.90
2022-09-14T00:25:04.808Z,2.60
2022-09-14T00:30:45.075Z,3.30
2022-09-14T00:36:35.339Z,2.70
2022-09-14T00:42:10.189Z,2.70
2022-09-14T00:47:24.163Z,2.50
2022-09-14T00:53:23.496Z,2.70
2022-09-14T00:59:45.543Z,2.80
2022-09-14T01:05:57.475Z,2.20
2022-09-14T01:11:58.235Z,2.50
2022-09-14T01:18:31.070Z,2.90
2022-09-14T01:25:04.453Z,3.00
2022-09-14T01:30:32.720Z,2.70
2022-09-14T01:36:35.087Z,2.90
2022-09-14T01:42:12.742Z,2.60
2022-09-14T01:48:06.692Z,2.60
2022-09-14T01:54:17.936Z,2.60
2022-09-14T01:59:43.352Z,2.90
2022-09-14T02:06:02.152Z,2.50
2022-09-14T02:11:31.723Z,2.80
2022-09-14T02:17:18.592Z,2.80
2022-09-14T02:22:46.512Z,2.70
2022-09-14T02:29:25.772Z,2.60
2022-09-14T02:36:02.352Z,2.80
2022-09-14T02:43:06.401Z,3.10
2022-09-14T02:55:50.845Z,3.30
2022-09-14T03:01:55.900Z,2.60
2022-09-14T03:07:56.893Z,3.30
2022-09-14T03:13:51.936Z,3.00
2022-09-14T03:20:15.477Z,3.30
2022-09-14T03:26:53.111Z,3.20
2022-09-14T03:33:15.434Z,3.90
2022-09-14T03:39:23.549Z,3.80
2022-09-14T03:46:05.951Z,3.90
2022-09-14T03:52:04.660Z,4.10
2022-09-14T03:58:46.536Z,4.00
2022-09-14T04:04:55.359Z,3.40
2022-09-14T04:10:32.602Z,4.00
2022-09-14T04:16:13.932Z,3.90
2022-09-14T04:22:38.050Z,3.50
2022-09-14T04:35:20.992Z,3.90
2022-09-14T04:40:31.888Z,3.80
2022-09-14T04:46:05.348Z,3.60
2022-09-14T04:51:26.270Z,3.20
2022-09-14T04:56:55.202Z,3.20
2022-09-14T05:02:27.545Z,3.50
2022-09-14T05:08:14.232Z,3.50
2022-09-14T05:13:51.689Z,3.90
2022-09-14T05:19:43.556Z,4.30
2022-09-14T05:24:45.751Z,4.00
2022-09-14T05:29:59.206Z,5.20
2022-09-14T05:35:17.175Z,4.70
2022-09-14T05:40:54.121Z,4.90
2022-09-14T05:46:36.207Z,6.20
2022-09-14T05:52:32.194Z,5.20
2022-09-14T05:58:06.023Z,5.20
2022-09-14T06:03:33.746Z,4.10
2022-09-14T06:09:16.688Z,4.30
2022-09-14T06:14:21.311Z,4.20
2022-09-14T06:19:46.539Z,4.30
2022-09-14T06:24:52.232Z,3.60
2022-09-14T06:30:05.695Z,3.50
2022-09-14T06:36:14.399Z,4.60
2022-09-14T06:41:57.030Z,4.50
2022-09-14T06:47:10.669Z,4.40
2022-09-14T06:52:57.336Z,4.50
2022-09-14T06:58:56.038Z,3.90
2022-09-14T07:04:27.407Z,3.30
2022-09-14T07:09:32.228Z,3.00
2022-09-14T07:14:47.872Z,3.30
2022-09-14T07:20:25.614Z,3.10
2022-09-14T07:26:25.048Z,5.50
2022-09-14T07:32:31.217Z,7.40
2022-09-14T07:37:57.507Z,4.50
2022-09-14T07:43:24.459Z,4.50
2022-09-14T07:49:33.851Z,4.00
2022-09-14T07:55:19.990Z,4.10
2022-09-14T08:01:16.933Z,3.60
2022-09-14T08:07:22.018Z,3.70
2022-09-14T08:12:41.411Z,3.40
2022-09-14T08:18:01.110Z,3.30
2022-09-14T08:23:36.255Z,3.30
2022-09-14T08:28:52.760Z,2.80
2022-09-14T08:34:05.440Z,3.30
2022-09-14T08:39:57.307Z,3.50
2022-09-14T08:45:24.238Z,3.30
2022-09-14T08:50:43.201Z,3.90
2022-09-14T08:56:18.640Z,4.20
2022-09-14T09:01:45.391Z,4.60
2022-09-14T09:07:39.003Z,4.00
2022-09-14T09:13:09.292Z,3.50
2022-09-14T09:19:00.677Z,3.90
2022-09-14T09:24:31.076Z,8.90
2022-09-14T09:29:42.372Z,4.10
2022-09-14T09:34:55.163Z,5.60
2022-09-14T09:40:50.287Z,3.70
2022-09-14T09:46:05.732Z,3.70
2022-09-14T09:51:23.827Z,4.10
2022-09-14T09:56:37.673Z,3.80
2022-09-14T10:01:42.639Z,3.90
2022-09-14T10:06:54.378Z,4.10
2022-09-14T10:12:41.808Z,4.20
2022-09-14T10:18:48.235Z,3.80
2022-09-14T10:24:21.256Z,5.00
2022-09-14T10:30:18.930Z,3.90
2022-09-14T10:36:58.151Z,3.50
2022-09-14T10:42:51.514Z,3.40
2022-09-14T10:49:04.498Z,3.80
2022-09-14T10:55:11.530Z,3.30
2022-09-14T11:01:06.648Z,3.50
2022-09-14T11:07:04.529Z,5.00
2022-09-14T11:13:54.540Z,4.90
2022-09-14T11:19:35.221Z,6.20
2022-09-14T11:25:20.538Z,4.80
2022-09-14T11:30:37.525Z,4.90
2022-09-14T11:35:55.264Z,4.80
2022-09-14T11:41:29.908Z,5.50
2022-09-14T11:47:05.540Z,5.80
2022-09-14T11:52:29.571Z,5.00
2022-09-14T11:57:46.180Z,6.30
2022-09-14T12:03:19.228Z,5.80
2022-09-14T12:08:48.828Z,5.70
2022-09-14T12:15:14.057Z,5.70
2022-09-14T12:21:30.845Z,4.60
2022-09-14T12:27:48.515Z,4.10
2022-09-14T12:33:33.912Z,5.00
2022-09-14T12:39:34.727Z,5.40
2022-09-14T12:44:47.445Z,5.50
2022-09-14T12:50:33.188Z,4.50
2022-09-14T12:55:59.803Z,6.50
2022-09-14T13:01:49.511Z,6.00
2022-09-14T13:07:07.120Z,5.40
2022-09-14T13:12:43.167Z,5.50
2022-09-14T13:18:16.785Z,5.10
2022-09-14T13:24:08.409Z,4.50
2022-09-14T13:29:29.802Z,5.40
2022-09-14T13:34:40.938Z,4.30
2022-09-14T13:39:54.814Z,6.50
2022-09-14T13:44:57.371Z,5.00
2022-09-14T13:50:03.225Z,5.40
2022-09-14T13:55:48.806Z,5.30
2022-09-14T14:00:58.227Z,7.70
2022-09-14T14:06:51.203Z,6.90
2022-09-14T14:12:17.375Z,7.80
2022-09-14T14:17:57.142Z,6.20
2022-09-14T14:24:11.768Z,9.50
2022-09-14T14:35:48.705Z,6.80
2022-09-14T14:41:23.977Z,7.40
2022-09-14T14:47:02.151Z,8.30
2022-09-14T14:52:12.785Z,7.90
2022-09-14T14:58:41.876Z,8.10
2022-09-14T15:04:07.207Z,6.20
2022-09-14T15:10:37.698Z,5.80
2022-09-14T15:16:42.561Z,5.80
2022-09-14T15:22:21.689Z,5.40
2022-09-14T15:28:11.307Z,6.00
2022-09-14T15:33:58.877Z,7.50
2022-09-14T15:39:25.948Z,5.10
2022-09-14T15:44:37.079Z,5.40
2022-09-14T15:49:43.702Z,4.70
2022-09-14T15:56:25.883Z,5.20
2022-09-14T16:02:28.567Z,5.30
2022-09-14T16:08:13.365Z,4.90
2022-09-14T16:14:15.789Z,4.00
2022-09-14T16:19:40.734Z,2.30
2022-09-14T16:25:06.055Z,2.60
2022-09-14T16:31:14.151Z,2.30
2022-09-14T16:36:27.026Z,3.50
2022-09-14T16:41:58.569Z,3.10
2022-09-14T16:47:18.050Z,2.80
2022-09-14T16:52:53.319Z,3.20
2022-09-14T16:58:44.924Z,2.80
2022-09-14T17:04:40.073Z,2.40
2022-09-14T17:10:14.431Z,2.40
2022-09-14T17:15:38.178Z,2.40
2022-09-14T17:21:51.688Z,2.10
2022-09-14T17:28:05.113Z,3.10
2022-09-14T17:34:18.908Z,2.00
2022-09-14T17:39:46.927Z,2.50
2022-09-14T17:45:21.729Z,2.10
2022-09-14T17:51:12.779Z,3.00
2022-09-14T17:56:57.464Z,2.80
2022-09-14T18:02:31.065Z,3.30
2022-09-14T18:07:55.607Z,5.10
2022-09-14T18:13:57.290Z,4.10
2022-09-14T18:19:58.587Z,4.20
2022-09-14T18:25:55.500Z,4.20
2022-09-14T18:31:39.377Z,4.50
2022-09-14T18:37:44.326Z,4.10
2022-09-14T18:42:48.137Z,4.20
2022-09-14T18:47:50.221Z,4.70
2022-09-14T18:53:02.718Z,5.00
2022-09-14T18:58:10.300Z,5.20
2022-09-14T19:03:56.194Z,4.50
2022-09-14T19:09:09.440Z,4.90
2022-09-14T19:15:12.787Z,4.10
2022-09-14T19:21:07.442Z,5.20
2022-09-14T19:26:15.046Z,5.80
2022-09-14T19:31:36.652Z,6.70
2022-09-14T19:36:45.305Z,5.60
2022-09-14T19:42:08.055Z,6.40
2022-09-14T19:47:29.605Z,6.70
2022-09-14T19:53:02.572Z,7.00
2022-09-14T19:58:46.860Z,7.80
2022-09-14T20:04:05.083Z,7.10
2022-09-14T20:09:27.923Z,6.80
2022-09-14T20:14:45.003Z,6.40
2022-09-14T20:20:15.415Z,6.70
2022-09-14T20:25:42.041Z,7.70
2022-09-14T20:30:57.757Z,6.60
2022-09-14T20:36:45.178Z,7.40
2022-09-14T20:42:31.098Z,6.80
2022-09-14T20:48:09.092Z,6.40
2022-09-14T20:53:48.166Z,6.20
2022-09-14T20:59:22.846Z,7.20
2022-09-14T21:04:50.469Z,6.80
2022-09-14T21:10:40.173Z,6.40
2022-09-14T21:16:42.484Z,6.60
2022-09-14T21:22:17.187Z,6.70
2022-09-14T21:28:20.862Z,7.70
2022-09-14T21:34:16.028Z,6.90
2022-09-14T21:40:24.162Z,7.40
2022-09-14T21:46:37.706Z,6.90
2022-09-14T21:52:25.996Z,8.00
2022-09-14T21:57:34.200Z,7.80
2022-09-14T22:03:18.146Z,6.90
2022-09-14T22:09:36.734Z,8.00
2022-09-14T22:15:36.790Z,7.40
2022-09-14T22:21:55.012Z,6.70
2022-09-14T22:28:32.539Z,7.00
2022-09-14T22:34:28.411Z,6.90
2022-09-14T22:40:36.367Z,6.60
2022-09-14T22:46:25.587Z,5.80
2022-09-14T22:52:47.919Z,6.00
2022-09-14T22:58:14.692Z,6.30
2022-09-14T23:04:34.644Z,6.80
2022-09-14T23:10:23.844Z,7.90
2022-09-14T23:16:50.691Z,7.10
2022-09-14T23:22:41.036Z,6.70
2022-09-14T23:28:55.991Z,6.40
2022-09-14T23:35:37.021Z,7.60
2022-09-14T23:42:11.663Z,7.50
2022-09-14T23:47:35.613Z,8.00
2022-09-14T23:53:06.799Z,8.10
